createdAt,value
2022-12-25T00:00:02.119Z,14.20
2022-12-25T00:02:32.695Z,14.20
2022-12-25T00:05:03.259Z,14.20
2022-12-25T00:07:31.774Z,14.20
2022-12-25T00:09:59.897Z,14.20
2022-12-25T00:12:27.811Z,14.20
2022-12-25T00:14:58.600Z,14.10
2022-12-25T00:17:26.507Z,14.10
2022-12-25T00:19:54.391Z,14.10
2022-12-25T00:22:24.092Z,14.10
2022-12-25T00:24:54.394Z,14.10
2022-12-25T00:27:22.234Z,14.10
2022-12-25T00:30:00.266Z,14.10
2022-12-25T00:32:29.255Z,14.10
2022-12-25T00:34:57.435Z,14.10
2022-12-25T00:37:27.703Z,14.10
2022-12-25T00:39:55.517Z,14.10
2022-12-25T00:42:24.882Z,14.00
2022-12-25T00:44:54.506Z,14.00
2022-12-25T00:47:29.398Z,14.00
2022-12-25T00:49:57.249Z,14.00
2022-12-25T00:52:27.875Z,14.00
2022-12-25T00:54:55.694Z,14.00
2022-12-25T00:57:28.422Z,13.90
2022-12-25T00:59:58.234Z,14.00
2022-12-25T01:02:29.100Z,13.90
2022-12-25T01:04:59.256Z,13.90
2022-12-25T01:07:29.479Z,13.90
2022-12-25T01:10:15.231Z,13.90
2022-12-25T01:12:47.223Z,13.90
2022-12-25T01:15:15.189Z,13.90
2022-12-25T01:17:47.868Z,13.90
2022-12-25T01:20:20.013Z,13.80
2022-12-25T01:22:47.907Z,13.90
2022-12-25T01:25:15.787Z,13.80
2022-12-25T01:27:43.666Z,13.80
2022-12-25T01:30:12.844Z,13.80
2022-12-25T01:32:40.745Z,13.80
2022-12-25T01:35:12.404Z,13.80
2022-12-25T01:37:40.308Z,13.80
2022-12-25T01:40:10.791Z,13.80
2022-12-25T01:42:38.757Z,13.80
2022-12-25T01:45:34.474Z,13.70
2022-12-25T01:48:11.227Z,13.70
2022-12-25T01:50:47.714Z,13.70
2022-12-25T01:53:18.147Z,13.60
2022-12-25T01:55:49.958Z,13.60
2022-12-25T01:58:19.256Z,13.60
2022-12-25T02:00:50.278Z,13.60
2022-12-25T02:03:23.315Z,13.60
2022-12-25T02:06:18.522Z,13.50
2022-12-25T02:08:49.364Z,13.60
2022-12-25T02:11:31.175Z,13.60
2022-12-25T02:14:00.128Z,13.60
2022-12-25T02:16:35.592Z,13.50
2022-12-25T02:19:55.313Z,13.50
2022-12-25T02:22:42.901Z,13.40
2022-12-25T02:25:33.926Z,13.40
2022-12-25T02:28:38.015Z,13.40
2022-12-25T02:31:14.096Z,13.40
2022-12-25T02:34:07.566Z,13.30
2022-12-25T02:36:45.305Z,13.30
2022-12-25T02:39:42.356Z,13.30
2022-12-25T02:42:21.153Z,13.30
2022-12-25T02:45:13.437Z,13.30
2022-12-25T02:47:58.905Z,13.30
2022-12-25T02:50:47.936Z,13.30
2022-12-25T02:53:46.951Z,13.20
2022-12-25T02:56:34.908Z,13.20
2022-12-25T02:59:38.597Z,13.20
2022-12-25T03:02:27.947Z,13.10
2022-12-25T03:05:16.073Z,13.10
2022-12-25T03:07:48.827Z,13.10
2022-12-25T03:10:34.684Z,13.10
2022-12-25T03:13:12.484Z,13.10
2022-12-25T03:15:59.087Z,13.10
2022-12-25T03:18:32.971Z,13.10
2022-12-25T03:21:18.102Z,13.10
2022-12-25T03:24:13.030Z,13.00
2022-12-25T03:26:56.311Z,13.00
2022-12-25T03:29:50.038Z,13.00
2022-12-25T03:32:34.585Z,12.90
2022-12-25T03:35:25.298Z,12.90
2022-12-25T03:38:31.407Z,12.90
2022-12-25T03:41:31.964Z,12.90
2022-12-25T03:44:29.762Z,12.90
2022-12-25T03:47:28.938Z,12.80
2022-12-25T03:50:29.519Z,12.80
2022-12-25T03:53:21.416Z,12.80
2022-12-25T03:56:10.116Z,12.80
2022-12-25T03:58:56.210Z,12.80
2022-12-25T04:01:44.910Z,12.80
2022-12-25T04:04:30.544Z,12.80
2022-12-25T04:07:20.312Z,12.70
2022-12-25T04:10:05.831Z,12.70
2022-12-25T04:12:51.088Z,12.70
2022-12-25T04:15:38.006Z,12.70
2022-12-25T04:18:24.015Z,12.70
2022-12-25T04:21:09.659Z,12.70
2022-12-25T04:23:56.488Z,12.60
2022-12-25T04:26:45.244Z,12.60
2022-12-25T04:29:33.855Z,12.60
2022-12-25T04:32:19.658Z,12.60
2022-12-25T04:35:05.205Z,12.60
2022-12-25T04:37:33.051Z,12.60
2022-12-25T04:40:04.623Z,12.50
2022-12-25T04:42:34.509Z,12.50
2022-12-25T04:45:02.344Z,12.50
2022-12-25T04:47:30.175Z,12.50
2022-12-25T04:49:58.368Z,12.50
2022-12-25T04:52:27.479Z,12.50
2022-12-25T04:54:55.334Z,12.50
2022-12-25T04:57:24.470Z,12.50
2022-12-25T04:59:54.673Z,12.50
2022-12-25T05:02:22.773Z,12.40
2022-12-25T05:04:59.670Z,12.50
2022-12-25T05:07:27.773Z,12.40
2022-12-25T05:09:58.224Z,12.40
2022-12-25T05:12:31.290Z,12.40
2022-12-25T05:14:59.153Z,12.40
2022-12-25T05:17:27.105Z,12.40
2022-12-25T05:19:57.539Z,12.40
2022-12-25T05:22:26.691Z,12.40
2022-12-25T05:24:57.326Z,12.40
2022-12-25T05:27:27.112Z,12.40
2022-12-25T05:29:59.976Z,12.30
2022-12-25T05:32:32.960Z,12.30
2022-12-25T05:35:02.562Z,12.30
2022-12-25T05:37:30.478Z,12.30
2022-12-25T05:40:01.695Z,12.30
2022-12-25T05:42:29.928Z,12.30
2022-12-25T05:45:03.268Z,12.20
2022-12-25T05:47:32.290Z,12.30
2022-12-25T05:50:00.728Z,12.20
2022-12-25T05:52:35.384Z,12.20
2022-12-25T05:55:04.024Z,12.20
2022-12-25T05:57:33.342Z,12.20
2022-12-25T06:00:02.641Z,12.20
2022-12-25T06:02:41.840Z,12.20
2022-12-25T06:05:12.436Z,12.20
2022-12-25T06:07:40.251Z,12.20
2022-12-25T06:10:09.901Z,12.20
2022-12-25T06:12:37.892Z,12.20
2022-12-25T06:15:12.744Z,12.10
2022-12-25T06:17:40.693Z,12.10
2022-12-25T06:20:33.447Z,12.10
2022-12-25T06:23:04.659Z,12.10
2022-12-25T06:25:32.520Z,12.10
2022-12-25T06:28:03.003Z,12.10
2022-12-25T06:30:32.393Z,12.10
2022-12-25T06:33:02.926Z,12.10
2022-12-25T06:35:30.795Z,12.10
2022-12-25T06:37:58.786Z,12.10
2022-12-25T06:40:28.063Z,12.00
2022-12-25T06:43:03.095Z,12.10
2022-12-25T06:45:36.568Z,12.00
2022-12-25T06:48:07.208Z,12.00
2022-12-25T06:50:37.520Z,12.00
2022-12-25T06:53:05.507Z,12.00
2022-12-25T06:55:33.632Z,12.00
2022-12-25T06:58:03.058Z,12.00
2022-12-25T07:00:34.546Z,12.00
2022-12-25T07:03:08.109Z,12.00
2022-12-25T07:05:37.343Z,12.00
2022-12-25T07:08:05.776Z,12.00
2022-12-25T07:10:33.695Z,12.00
2022-12-25T07:13:03.896Z,12.00
2022-12-25T07:15:33.090Z,12.00
2022-12-25T07:18:03.545Z,12.00
2022-12-25T07:20:31.632Z,12.10
2022-12-25T07:22:59.482Z,12.10
2022-12-25T07:25:33.571Z,12.00
2022-12-25T07:28:07.377Z,12.00
2022-12-25T07:30:39.017Z,12.00
2022-12-25T07:33:10.785Z,12.00
2022-12-25T07:35:38.727Z,12.00
2022-12-25T07:38:09.242Z,12.00
2022-12-25T07:40:38.527Z,12.00
2022-12-25T07:43:06.571Z,12.00
2022-12-25T07:45:34.848Z,12.00
2022-12-25T07:48:15.345Z,12.00
2022-12-25T07:50:46.317Z,12.00
2022-12-25T07:53:16.798Z,12.00
2022-12-25T07:55:44.705Z,12.00
2022-12-25T07:58:12.538Z,12.00
2022-12-25T08:00:42.771Z,12.00
2022-12-25T08:03:16.967Z,12.00
2022-12-25T08:05:46.917Z,12.00
2022-12-25T08:08:17.170Z,12.00
2022-12-25T08:10:49.299Z,12.00
2022-12-25T08:13:25.814Z,12.00
2022-12-25T08:16:01.248Z,12.00
2022-12-25T08:18:34.443Z,12.00
2022-12-25T08:21:05.122Z,12.00
2022-12-25T08:23:37.373Z,12.00
2022-12-25T08:26:08.185Z,12.00
2022-12-25T08:28:37.420Z,12.00
2022-12-25T08:31:19.004Z,12.00
2022-12-25T08:33:51.266Z,12.00
2022-12-25T08:36:22.912Z,12.00
2022-12-25T08:38:55.637Z,12.00
2022-12-25T08:41:30.537Z,12.00
2022-12-25T08:44:02.047Z,12.00
2022-12-25T08:46:30.058Z,12.10
2022-12-25T08:49:03.686Z,12.10
2022-12-25T08:51:33.872Z,12.10
2022-12-25T08:54:05.060Z,12.10
2022-12-25T08:56:33.495Z,12.10
2022-12-25T08:59:01.357Z,12.10
2022-12-25T09:01:33.077Z,12.20
2022-12-25T09:04:13.532Z,12.20
2022-12-25T09:06:46.770Z,12.20
2022-12-25T09:09:18.255Z,12.20
2022-12-25T09:11:53.127Z,12.20
2022-12-25T09:14:29.133Z,12.20
2022-12-25T09:17:04.947Z,12.20
2022-12-25T09:19:41.178Z,12.20
2022-12-25T09:22:09.131Z,12.30
2022-12-25T09:24:39.162Z,12.40
2022-12-25T09:27:07.795Z,12.40
2022-12-25T09:29:35.959Z,12.40
2022-12-25T09:32:05.087Z,12.40
2022-12-25T09:34:32.903Z,12.40
2022-12-25T09:37:04.726Z,12.50
2022-12-25T09:39:34.702Z,12.50
2022-12-25T09:42:14.121Z,12.50
2022-12-25T09:44:48.989Z,12.50
2022-12-25T09:47:21.838Z,12.60
2022-12-25T09:49:59.727Z,12.50
2022-12-25T09:52:45.111Z,12.60
2022-12-25T09:55:20.536Z,12.60
2022-12-25T09:58:01.611Z,12.60
2022-12-25T10:00:39.330Z,12.70
2022-12-25T10:03:40.321Z,12.70
2022-12-25T10:06:23.289Z,12.70
2022-12-25T10:09:30.411Z,12.70
2022-12-25T10:12:23.800Z,12.80
2022-12-25T10:15:11.838Z,12.80
2022-12-25T10:18:09.883Z,12.80
2022-12-25T10:20:53.660Z,12.90
2022-12-25T10:23:33.261Z,12.90
2022-12-25T10:26:05.551Z,12.90
2022-12-25T10:28:41.671Z,12.90
2022-12-25T10:31:22.453Z,13.00
2022-12-25T10:33:53.813Z,13.00
2022-12-25T10:36:30.257Z,13.00
2022-12-25T10:39:00.920Z,13.10
2022-12-25T10:42:19.366Z,13.00
2022-12-25T10:45:05.020Z,13.10
2022-12-25T10:47:37.960Z,13.20
2022-12-25T10:50:13.662Z,13.20
2022-12-25T10:53:01.423Z,13.20
2022-12-25T10:55:30.005Z,13.30
2022-12-25T10:58:02.047Z,13.30
2022-12-25T11:00:39.068Z,13.30
2022-12-25T11:03:07.734Z,13.40
2022-12-25T11:05:37.920Z,13.40
2022-12-25T11:08:24.310Z,13.40
2022-12-25T11:11:06.299Z,13.50
2022-12-25T11:13:42.860Z,13.50
2022-12-25T11:16:26.394Z,13.50
2022-12-25T11:18:55.432Z,13.60
2022-12-25T11:21:30.752Z,13.60
2022-12-25T11:24:04.767Z,13.60
2022-12-25T11:26:48.526Z,13.60
2022-12-25T11:29:30.845Z,13.70
2022-12-25T11:32:03.437Z,13.70
2022-12-25T11:34:46.461Z,13.70
2022-12-25T11:37:20.900Z,13.80
2022-12-25T11:39:49.373Z,13.80
2022-12-25T11:42:23.554Z,13.80
2022-12-25T11:45:06.415Z,13.80
2022-12-25T11:47:40.630Z,13.90
2022-12-25T11:50:30.791Z,13.90
2022-12-25T11:53:15.783Z,13.90
2022-12-25T11:55:54.601Z,13.90
2022-12-25T11:58:34.439Z,14.00
2022-12-25T12:01:11.296Z,14.00
2022-12-25T12:03:43.150Z,14.00
2022-12-25T12:06:24.188Z,14.10
2022-12-25T12:09:02.421Z,14.10
2022-12-25T12:11:42.157Z,14.10
2022-12-25T12:14:43.104Z,14.10
2022-12-25T12:17:15.497Z,14.20
2022-12-25T12:19:45.598Z,14.20
2022-12-25T12:22:37.281Z,14.20
2022-12-25T12:25:10.870Z,14.20
2022-12-25T12:27:43.142Z,14.20
2022-12-25T12:30:31.263Z,14.20
2022-12-25T12:33:20.155Z,14.30
2022-12-25T12:35:49.850Z,14.30
2022-12-25T12:38:21.865Z,14.30
2022-12-25T12:40:56.439Z,14.30
2022-12-25T12:43:55.282Z,14.30
2022-12-25T12:46:31.404Z,14.40
2022-12-25T12:49:22.149Z,14.40
2022-12-25T12:51:52.019Z,14.40
2022-12-25T12:54:26.222Z,14.40
2022-12-25T12:57:01.272Z,14.40
2022-12-25T12:59:45.806Z,14.40
2022-12-25T13:03:08.162Z,14.40
2022-12-25T13:05:47.972Z,14.40
2022-12-25T13:08:40.975Z,14.40
2022-12-25T13:11:21.541Z,14.50
2022-12-25T13:13:52.431Z,14.50
2022-12-25T13:16:41.835Z,14.50
2022-12-25T13:19:19.487Z,14.50
2022-12-25T13:21:57.083Z,14.60
2022-12-25T13:24:28.125Z,14.60
2022-12-25T13:26:56.768Z,14.60
2022-12-25T13:29:37.849Z,14.60
2022-12-25T13:32:21.910Z,14.60
2022-12-25T13:34:52.286Z,14.70
2022-12-25T13:37:27.354Z,14.70
2022-12-25T13:39:59.178Z,14.70
2022-12-25T13:42:31.092Z,14.80
2022-12-25T13:45:06.323Z,14.70
2022-12-25T13:47:39.025Z,14.80
2022-12-25T13:50:17.651Z,14.80
2022-12-25T13:52:56.343Z,14.80
2022-12-25T13:55:27.251Z,14.80
2022-12-25T13:57:59.028Z,14.80
2022-12-25T14:00:41.168Z,14.80
2022-12-25T14:03:21.628Z,14.80
2022-12-25T14:05:58.960Z,14.80
2022-12-25T14:08:34.279Z,14.90
2022-12-25T14:11:08.084Z,14.90
2022-12-25T14:13:41.777Z,14.90
2022-12-25T14:16:14.145Z,14.90
2022-12-25T14:18:56.514Z,14.90
2022-12-25T14:21:33.234Z,14.90
2022-12-25T14:24:13.071Z,14.90
2022-12-25T14:26:43.539Z,15.00
2022-12-25T14:29:20.456Z,14.90
2022-12-25T14:31:52.839Z,15.00
2022-12-25T14:34:26.778Z,15.00
2022-12-25T14:36:55.728Z,15.00
2022-12-25T14:39:37.465Z,15.00
2022-12-25T14:42:23.685Z,15.00
2022-12-25T14:45:16.269Z,15.00
2022-12-25T14:47:55.142Z,15.00
2022-12-25T14:50:32.601Z,14.90
2022-12-25T14:53:01.024Z,15.00
2022-12-25T14:55:33.612Z,15.00
2022-12-25T14:58:08.523Z,15.00
2022-12-25T15:00:42.817Z,15.00
2022-12-25T15:03:25.041Z,15.00
2022-12-25T15:06:08.305Z,15.00
2022-12-25T15:08:36.534Z,15.10
2022-12-25T15:11:06.400Z,15.10
2022-12-25T15:13:34.371Z,15.10
2022-12-25T15:16:18.062Z,15.10
2022-12-25T15:18:48.259Z,15.10
2022-12-25T15:21:28.435Z,15.10
2022-12-25T15:24:00.131Z,15.10
2022-12-25T15:26:33.701Z,15.10
2022-12-25T15:31:43.441Z,15.10
2022-12-25T15:34:23.590Z,15.10
2022-12-25T15:36:53.317Z,15.20
2022-12-25T15:39:21.192Z,15.20
2022-12-25T15:42:16.921Z,15.20
2022-12-25T15:44:46.086Z,15.20
2022-12-25T15:47:19.927Z,15.20
2022-12-25T15:49:47.913Z,15.20
2022-12-25T15:52:20.116Z,15.20
2022-12-25T15:54:47.970Z,15.20
2022-12-25T15:57:23.845Z,15.20
2022-12-25T15:59:53.034Z,15.20
2022-12-25T16:02:22.735Z,15.20
2022-12-25T16:04:51.297Z,15.20
2022-12-25T16:07:23.032Z,15.20
2022-12-25T16:09:52.382Z,15.20
2022-12-25T16:12:23.057Z,15.20
2022-12-25T16:14:53.270Z,15.20
2022-12-25T16:17:29.959Z,15.20
2022-12-25T16:19:58.903Z,15.20
2022-12-25T16:22:28.621Z,15.20
2022-12-25T16:24:58.092Z,15.20
2022-12-25T16:27:28.460Z,15.20
2022-12-25T16:29:56.327Z,15.30
2022-12-25T16:32:25.305Z,15.30
2022-12-25T16:34:53.591Z,15.30
2022-12-25T16:37:21.495Z,15.30
2022-12-25T16:39:49.925Z,15.30
2022-12-25T16:42:17.811Z,15.30
2022-12-25T16:44:49.781Z,15.20
2022-12-25T16:47:17.677Z,15.30
2022-12-25T16:49:45.926Z,15.30
2022-12-25T16:52:14.924Z,15.30
2022-12-25T16:54:42.777Z,15.30
2022-12-25T16:57:10.664Z,15.30
2022-12-25T16:59:38.847Z,15.30
2022-12-25T17:02:08.185Z,15.30
2022-12-25T17:04:36.560Z,15.30
2022-12-25T17:07:05.771Z,15.30
2022-12-25T17:09:37.472Z,15.30
2022-12-25T17:12:09.531Z,15.30
2022-12-25T17:14:40.186Z,15.30
2022-12-25T17:17:11.721Z,15.30
2022-12-25T17:19:40.917Z,15.30
2022-12-25T17:22:10.075Z,15.30
2022-12-25T17:24:40.337Z,15.30
2022-12-25T17:27:09.726Z,15.30
2022-12-25T17:29:40.558Z,15.30
2022-12-25T17:32:13.513Z,15.30
2022-12-25T17:34:41.375Z,15.30
2022-12-25T17:37:10.527Z,15.30
2022-12-25T17:39:39.465Z,15.30
2022-12-25T17:42:07.523Z,15.30
2022-12-25T17:44:35.981Z,15.30
2022-12-25T17:47:07.171Z,15.30
2022-12-25T17:49:40.667Z,15.30
2022-12-25T17:52:10.205Z,15.30
2022-12-25T17:54:41.678Z,15.30
2022-12-25T17:57:12.171Z,15.30
2022-12-25T17:59:40.072Z,15.30
2022-12-25T18:02:09.400Z,15.40
2022-12-25T18:04:42.381Z,15.30
2022-12-25T18:07:10.330Z,15.30
2022-12-25T18:09:38.487Z,15.30
2022-12-25T18:12:09.622Z,15.40
2022-12-25T18:14:37.610Z,15.40
2022-12-25T18:17:10.514Z,15.30
2022-12-25T18:19:40.816Z,15.40
2022-12-25T18:22:12.460Z,15.40
2022-12-25T18:24:40.769Z,15.40
2022-12-25T18:27:11.409Z,15.40
2022-12-25T18:29:41.904Z,15.40
2022-12-25T18:32:11.391Z,15.40
2022-12-25T18:34:41.650Z,15.40
2022-12-25T18:37:10.962Z,15.40
2022-12-25T18:39:39.068Z,15.40
2022-12-25T18:42:24.731Z,15.40
2022-12-25T18:44:54.363Z,15.40
2022-12-25T18:47:22.220Z,15.40
2022-12-25T18:49:55.398Z,15.40
2022-12-25T18:52:49.125Z,15.40
2022-12-25T18:55:15.435Z,15.40
2022-12-25T18:57:45.341Z,15.50
2022-12-25T19:00:13.779Z,15.50
2022-12-25T19:02:44.363Z,15.50
2022-12-25T19:05:12.393Z,15.50
2022-12-25T19:07:46.475Z,15.50
2022-12-25T19:10:15.207Z,15.50
2022-12-25T19:12:43.398Z,15.50
2022-12-25T19:15:14.721Z,15.50
2022-12-25T19:17:42.836Z,15.50
2022-12-25T19:20:14.033Z,15.50
2022-12-25T19:22:46.863Z,15.50
2022-12-25T19:25:14.799Z,15.60
2022-12-25T19:27:42.664Z,15.60
2022-12-25T19:30:15.605Z,15.60
2022-12-25T19:32:46.048Z,15.60
2022-12-25T19:35:13.977Z,15.60
2022-12-25T19:37:47.524Z,15.60
2022-12-25T19:40:15.388Z,15.60
2022-12-25T19:42:43.341Z,15.60
2022-12-25T19:45:13.109Z,15.60
2022-12-25T19:47:46.869Z,15.60
2022-12-25T19:50:17.439Z,15.60
2022-12-25T19:52:52.425Z,15.60
2022-12-25T19:55:23.530Z,15.60
2022-12-25T19:57:52.390Z,15.70
2022-12-25T20:00:20.725Z,15.70
2022-12-25T20:02:50.489Z,16.20
2022-12-25T20:05:21.029Z,16.10
2022-12-25T20:07:51.281Z,16.00
2022-12-25T20:10:22.223Z,16.00
2022-12-25T20:12:52.272Z,16.00
2022-12-25T20:15:23.518Z,16.00
2022-12-25T20:17:55.018Z,16.00
2022-12-25T20:20:24.753Z,16.00
2022-12-25T20:22:54.168Z,15.90
2022-12-25T20:25:24.679Z,15.90
2022-12-25T20:27:56.460Z,15.90
2022-12-25T20:30:29.073Z,15.90
2022-12-25T20:32:58.653Z,15.90
2022-12-25T20:35:27.034Z,15.90
2022-12-25T20:37:57.443Z,15.90
2022-12-25T20:40:27.670Z,16.00
2022-12-25T20:42:56.003Z,16.00
2022-12-25T20:45:23.893Z,16.00
2022-12-25T20:47:57.135Z,15.90
2022-12-25T20:50:25.320Z,16.00
2022-12-25T20:52:55.054Z,16.00
2022-12-25T20:55:26.443Z,15.90
2022-12-25T20:58:03.075Z,16.00
2022-12-25T21:00:42.725Z,16.00
2022-12-25T21:03:12.136Z,16.00
2022-12-25T21:05:50.752Z,16.00
2022-12-25T21:08:20.880Z,16.00
2022-12-25T21:10:56.647Z,16.00
2022-12-25T21:13:26.574Z,16.00
2022-12-25T21:15:56.717Z,16.00
2022-12-25T21:18:27.116Z,16.00
2022-12-25T21:21:00.460Z,16.00
2022-12-25T21:23:32.349Z,16.00
2022-12-25T21:26:15.751Z,16.00
2022-12-25T21:28:46.315Z,16.10
2022-12-25T21:31:16.869Z,16.00
2022-12-25T21:33:53.269Z,16.10
2022-12-25T21:36:28.246Z,16.00
2022-12-25T21:39:01.446Z,16.00
2022-12-25T21:41:40.471Z,16.00
2022-12-25T21:44:11.810Z,16.10
2022-12-25T21:46:43.215Z,16.10
2022-12-25T21:49:12.308Z,16.10
2022-12-25T21:51:57.772Z,16.10
2022-12-25T21:54:25.639Z,16.10
2022-12-25T21:56:56.634Z,16.10
2022-12-25T21:59:24.515Z,16.10
2022-12-25T22:01:56.394Z,16.10
2022-12-25T22:04:26.981Z,16.10
2022-12-25T22:07:12.624Z,16.10
2022-12-25T22:09:42.775Z,16.10
2022-12-25T22:12:37.678Z,16.10
2022-12-25T22:15:13.221Z,16.10
2022-12-25T22:18:02.377Z,16.10
2022-12-25T22:20:38.236Z,16.10
2022-12-25T22:23:08.533Z,16.10
2022-12-25T22:25:36.373Z,16.10
2022-12-25T22:28:08.517Z,16.10
2022-12-25T22:30:42.735Z,16.10
2022-12-25T22:33:10.908Z,16.10
2022-12-25T22:35:39.073Z,16.10
2022-12-25T22:38:08.758Z,16.20
2022-12-25T22:40:38.400Z,16.10
2022-12-25T22:43:16.844Z,16.10
2022-12-25T22:45:46.820Z,16.20
2022-12-25T22:48:16.983Z,16.20
2022-12-25T22:50:44.830Z,16.20
2022-12-25T22:53:15.727Z,16.20
2022-12-25T22:55:47.304Z,16.20
2022-12-25T22:58:17.409Z,16.20
2022-12-25T23:00:48.678Z,16.20
2022-12-25T23:03:19.038Z,16.20
2022-12-25T23:05:57.776Z,16.20
2022-12-25T23:08:28.225Z,16.20
2022-12-25T23:10:58.635Z,16.20
2022-12-25T23:13:45.261Z,16.30
2022-12-25T23:16:15.144Z,16.20
2022-12-25T23:19:06.872Z,16.20
2022-12-25T23:21:52.781Z,16.20
2022-12-25T23:24:38.382Z,16.20
2022-12-25T23:27:09.704Z,16.20
2022-12-25T23:29:42.589Z,16.20
2022-12-25T23:32:17.115Z,16.20
2022-12-25T23:34:48.548Z,16.30
2022-12-25T23:37:18.616Z,16.30
2022-12-25T23:39:50.039Z,16.30
2022-12-25T23:42:19.143Z,16.30
2022-12-25T23:44:48.395Z,16.30
2022-12-25T23:47:16.383Z,16.30
2022-12-25T23:49:46.139Z,16.30
2022-12-25T23:52:17.089Z,16.30
2022-12-25T23:54:46.149Z,16.30
2022-12-25T23:57:17.114Z,16.30
2022-12-25T23:59:45.057Z,16.30
